createdAt,value
2023-04-11T00:00:53.240Z,4.41
2023-04-11T00:01:53.408Z,4.36
2023-04-11T00:02:53.419Z,4.50
2023-04-11T00:03:53.425Z,4.58
2023-04-11T00:04:53.259Z,4.58
2023-04-11T00:05:53.308Z,4.64
2023-04-11T00:06:53.314Z,4.61
2023-04-11T00:07:53.374Z,4.66
2023-04-11T00:08:53.734Z,4.92
2023-04-11T00:09:53.504Z,5.05
2023-04-11T00:10:53.549Z,5.64
2023-04-11T00:11:53.621Z,4.86
2023-04-11T00:12:53.657Z,5.41
2023-04-11T00:13:53.632Z,5.01
2023-04-11T00:14:53.686Z,4.76
2023-04-11T00:15:53.709Z,5.26
2023-04-11T00:16:53.826Z,4.63
2023-04-11T00:17:53.885Z,5.08
2023-04-11T00:18:53.905Z,4.54
2023-04-11T00:19:53.703Z,4.92
2023-04-11T00:20:53.721Z,5.07
2023-04-11T00:21:54.597Z,4.44
2023-04-11T00:22:53.776Z,4.60
2023-04-11T00:23:53.779Z,4.91
2023-04-11T00:24:54.619Z,5.14
2023-04-11T00:25:53.787Z,4.79
2023-04-11T00:26:53.817Z,4.71
2023-04-11T00:27:53.807Z,4.52
2023-04-11T00:28:53.982Z,4.78
2023-04-11T00:29:53.774Z,4.93
2023-04-11T00:30:53.877Z,4.61
2023-04-11T00:31:53.886Z,4.68
2023-04-11T00:32:53.955Z,4.58
2023-04-11T00:33:53.823Z,4.75
2023-04-11T00:34:53.844Z,4.51
2023-04-11T00:35:54.677Z,4.44
2023-04-11T00:36:53.915Z,4.69
2023-04-11T00:37:53.880Z,4.45
2023-04-11T00:38:54.569Z,4.32
2023-04-11T00:39:54.020Z,4.81
2023-04-11T00:40:53.997Z,4.93
2023-04-11T00:41:54.000Z,4.48
2023-04-11T00:42:54.024Z,4.44
2023-04-11T00:43:54.066Z,4.49
2023-04-11T00:44:54.072Z,4.38
2023-04-11T00:45:54.117Z,4.66
2023-04-11T00:46:54.100Z,4.31
2023-04-11T00:47:54.150Z,4.45
2023-04-11T00:48:54.648Z,4.61
2023-04-11T00:49:54.097Z,4.24
2023-04-11T00:50:54.162Z,3.92
2023-04-11T00:51:54.534Z,4.00
2023-04-11T00:52:54.287Z,4.62
2023-04-11T00:53:54.619Z,4.32
2023-04-11T00:54:54.297Z,3.88
2023-04-11T00:55:54.295Z,3.75
2023-04-11T00:56:54.302Z,4.52
2023-04-11T00:57:54.351Z,4.03
2023-04-11T00:58:54.575Z,4.47
2023-04-11T00:59:54.415Z,4.19
2023-04-11T01:00:54.494Z,4.24
2023-04-11T01:01:54.633Z,4.19
2023-04-11T01:02:54.702Z,4.51
2023-04-11T01:03:54.734Z,4.64
2023-04-11T01:04:54.730Z,4.03
2023-04-11T01:05:54.817Z,4.13
2023-04-11T01:06:54.783Z,4.12
2023-04-11T01:07:54.795Z,4.32
2023-04-11T01:08:55.048Z,4.13
2023-04-11T01:09:54.802Z,4.63
2023-04-11T01:10:54.774Z,3.96
2023-04-11T01:11:54.799Z,4.76
2023-04-11T01:12:54.769Z,4.75
2023-04-11T01:13:54.792Z,4.37
2023-04-11T01:14:54.875Z,3.87
2023-04-11T01:15:55.201Z,4.05
2023-04-11T01:16:54.958Z,4.66
2023-04-11T01:17:54.978Z,4.25
2023-04-11T01:18:55.142Z,4.52
2023-04-11T01:19:55.012Z,4.34
2023-04-11T01:20:55.072Z,4.29
2023-04-11T01:21:55.097Z,4.35
2023-04-11T01:22:55.134Z,4.77
2023-04-11T01:23:55.167Z,4.42
2023-04-11T01:24:55.202Z,4.54
2023-04-11T01:25:55.573Z,4.49
2023-04-11T01:26:55.629Z,4.17
2023-04-11T01:27:55.365Z,4.76
2023-04-11T01:28:55.521Z,4.59
2023-04-11T01:29:55.420Z,4.17
2023-04-11T01:30:55.566Z,4.51
2023-04-11T01:31:55.593Z,4.40
2023-04-11T01:32:56.365Z,4.66
2023-04-11T01:33:55.747Z,5.12
2023-04-11T01:34:55.744Z,5.09
2023-04-11T01:35:55.804Z,4.96
2023-04-11T01:36:55.836Z,4.88
2023-04-11T01:37:55.930Z,5.17
2023-04-11T01:38:56.434Z,4.71
2023-04-11T01:39:55.983Z,4.94
2023-04-11T01:40:55.937Z,4.65
2023-04-11T01:41:57.039Z,4.67
2023-04-11T01:42:56.056Z,4.91
2023-04-11T01:43:56.123Z,5.30
2023-04-11T01:44:56.159Z,5.23
2023-04-11T01:45:56.213Z,5.53
2023-04-11T01:46:56.282Z,5.80
2023-04-11T01:47:56.458Z,5.21
2023-04-11T01:48:56.606Z,5.97
2023-04-11T01:49:56.812Z,5.41
2023-04-11T01:50:56.464Z,5.61
2023-04-11T01:51:56.478Z,6.10
2023-04-11T01:52:56.459Z,5.99
2023-04-11T01:53:56.458Z,6.04
2023-04-11T01:54:56.808Z,5.94
2023-04-11T01:55:56.816Z,5.93
2023-04-11T01:56:56.531Z,5.81
2023-04-11T01:57:56.584Z,6.02
2023-04-11T01:58:57.909Z,5.84
2023-04-11T01:59:56.669Z,6.72
2023-04-11T02:00:56.677Z,5.99
2023-04-11T02:01:57.185Z,6.17
2023-04-11T02:02:56.815Z,6.83
2023-04-11T02:03:56.866Z,6.49
2023-04-11T02:04:57.152Z,5.73
2023-04-11T02:05:56.835Z,5.62
2023-04-11T02:06:56.878Z,4.75
2023-04-11T02:07:57.305Z,4.92
2023-04-11T02:08:57.212Z,4.20
2023-04-11T02:09:57.031Z,4.17
2023-04-11T02:10:57.034Z,4.15
2023-04-11T02:11:57.095Z,4.38
2023-04-11T02:12:57.151Z,4.40
2023-04-11T02:13:57.156Z,4.55
2023-04-11T02:14:57.173Z,4.35
2023-04-11T02:15:57.211Z,4.58
2023-04-11T02:16:57.319Z,4.60
2023-04-11T02:17:57.315Z,4.37
2023-04-11T02:18:57.549Z,4.83
2023-04-11T02:19:57.504Z,5.32
2023-04-11T02:20:57.481Z,4.51
2023-04-11T02:21:57.558Z,4.93
2023-04-11T02:22:57.544Z,4.69
2023-04-11T02:23:57.703Z,4.82
2023-04-11T02:24:57.526Z,4.89
2023-04-11T02:25:57.514Z,4.72
2023-04-11T02:26:57.603Z,4.76
2023-04-11T02:27:57.518Z,4.58
2023-04-11T02:28:57.734Z,4.44
2023-04-11T02:29:57.534Z,5.05
2023-04-11T02:30:57.620Z,5.01
2023-04-11T02:31:57.713Z,4.61
2023-04-11T02:32:57.638Z,4.67
2023-04-11T02:33:57.576Z,4.77
2023-04-11T02:34:57.617Z,5.02
2023-04-11T02:35:57.632Z,4.49
2023-04-11T02:36:57.697Z,4.76
2023-04-11T02:37:57.701Z,5.00
2023-04-11T02:38:57.760Z,4.84
2023-04-11T02:39:57.837Z,5.11
2023-04-11T02:40:57.825Z,5.08
2023-04-11T02:41:57.824Z,4.64
2023-04-11T02:42:58.136Z,4.61
2023-04-11T02:43:57.854Z,4.71
2023-04-11T02:44:58.145Z,4.36
2023-04-11T02:46:05.826Z,4.00
2023-04-11T02:46:58.871Z,4.79
2023-04-11T02:47:57.890Z,4.44
2023-04-11T02:48:58.029Z,5.22
2023-04-11T02:49:57.823Z,5.24
2023-04-11T02:50:57.801Z,5.62
2023-04-11T02:51:57.879Z,5.39
2023-04-11T02:52:57.836Z,5.86
2023-04-11T02:53:57.794Z,5.42
2023-04-11T02:54:57.763Z,5.54
2023-04-11T02:55:57.792Z,5.79
2023-04-11T02:56:57.806Z,5.86
2023-04-11T02:57:57.713Z,5.23
2023-04-11T02:58:58.113Z,5.19
2023-04-11T02:59:57.813Z,5.59
2023-04-11T03:00:57.856Z,6.51
2023-04-11T03:01:58.003Z,6.48
2023-04-11T03:02:57.975Z,5.92
2023-04-11T03:03:57.993Z,6.01
2023-04-11T03:04:57.932Z,5.89
2023-04-11T03:05:57.986Z,6.24
2023-04-11T03:06:57.968Z,6.15
2023-04-11T03:07:58.263Z,6.30
2023-04-11T03:08:58.254Z,5.66
2023-04-11T03:09:57.941Z,6.61
2023-04-11T03:10:57.929Z,6.11
2023-04-11T03:11:57.908Z,5.72
2023-04-11T03:12:57.927Z,5.92
2023-04-11T03:13:57.946Z,6.37
2023-04-11T03:14:58.006Z,5.96
2023-04-11T03:15:57.989Z,6.49
2023-04-11T03:16:57.968Z,5.87
2023-04-11T03:17:57.983Z,5.19
2023-04-11T03:18:58.027Z,6.06
2023-04-11T03:19:57.975Z,6.12
2023-04-11T03:20:58.098Z,6.35
2023-04-11T03:21:58.152Z,5.94
2023-04-11T03:22:58.216Z,6.51
2023-04-11T03:23:58.215Z,5.72
2023-04-11T03:24:58.234Z,6.11
2023-04-11T03:25:58.295Z,5.51
2023-04-11T03:26:58.402Z,5.55
2023-04-11T03:27:58.361Z,5.99
2023-04-11T03:28:58.388Z,5.75
2023-04-11T03:29:58.469Z,5.87
2023-04-11T03:30:58.525Z,5.94
2023-04-11T03:31:58.478Z,6.54
2023-04-11T03:32:58.563Z,5.63
2023-04-11T03:33:58.473Z,5.49
2023-04-11T03:34:58.486Z,5.19
2023-04-11T03:35:58.545Z,5.26
2023-04-11T03:36:58.542Z,5.17
2023-04-11T03:37:58.566Z,5.72
2023-04-11T03:38:58.586Z,5.31
2023-04-11T03:39:58.523Z,5.56
2023-04-11T03:40:58.646Z,5.15
2023-04-11T03:41:58.602Z,5.43
2023-04-11T03:42:58.594Z,5.24
2023-04-11T03:43:58.641Z,5.10
2023-04-11T03:44:58.736Z,5.12
2023-04-11T03:45:58.725Z,5.39
2023-04-11T03:46:58.823Z,5.34
2023-04-11T03:47:58.815Z,4.90
2023-04-11T03:48:58.882Z,5.14
2023-04-11T03:49:58.801Z,4.75
2023-04-11T03:50:58.915Z,5.38
2023-04-11T03:51:58.968Z,5.68
2023-04-11T03:52:59.037Z,5.35
2023-04-11T03:53:59.027Z,5.00
2023-04-11T03:54:59.104Z,5.57
2023-04-11T03:55:59.146Z,5.33
2023-04-11T03:56:59.183Z,5.68
2023-04-11T03:57:59.242Z,5.99
2023-04-11T03:58:59.297Z,5.46
2023-04-11T03:59:59.369Z,6.83
2023-04-11T04:00:59.273Z,6.09
2023-04-11T04:01:59.439Z,6.03
2023-04-11T04:02:59.510Z,5.89
2023-04-11T04:03:59.766Z,6.94
2023-04-11T04:04:59.450Z,5.13
2023-04-11T04:05:59.509Z,5.09
2023-04-11T04:06:59.484Z,5.03
2023-04-11T04:07:59.448Z,4.88
2023-04-11T04:08:59.453Z,4.48
2023-04-11T04:09:59.526Z,4.75
2023-04-11T04:10:59.455Z,5.13
2023-04-11T04:11:59.451Z,4.84
2023-04-11T04:12:59.532Z,4.62
2023-04-11T04:13:59.495Z,4.50
2023-04-11T04:14:59.477Z,4.59
2023-04-11T04:16:01.276Z,5.27
2023-04-11T04:16:59.560Z,5.38
2023-04-11T04:17:59.480Z,5.11
2023-04-11T04:18:59.463Z,5.39
2023-04-11T04:19:59.476Z,5.40
2023-04-11T04:20:59.468Z,5.45
2023-04-11T04:21:59.475Z,4.73
2023-04-11T04:22:59.461Z,5.95
2023-04-11T04:23:59.445Z,8.01
2023-04-11T04:24:59.420Z,6.20
2023-04-11T04:25:59.420Z,4.88
2023-04-11T04:26:59.446Z,6.04
2023-04-11T04:27:59.423Z,5.25
2023-04-11T04:28:59.427Z,5.26
2023-04-11T04:30:03.332Z,5.30
2023-04-11T04:31:00.502Z,4.61
2023-04-11T04:31:59.417Z,5.14
2023-04-11T04:32:59.744Z,5.17
2023-04-11T04:33:59.332Z,5.31
2023-04-11T04:34:59.370Z,5.03
2023-04-11T04:35:59.508Z,5.34
2023-04-11T04:36:59.448Z,5.67
2023-04-11T04:37:59.393Z,4.72
2023-04-11T04:38:59.374Z,4.90
2023-04-11T04:39:59.337Z,4.67
2023-04-11T04:40:59.349Z,4.04
2023-04-11T04:41:59.388Z,4.28
2023-04-11T04:42:59.326Z,4.54
2023-04-11T04:43:59.568Z,5.27
2023-04-11T04:44:59.321Z,5.45
2023-04-11T04:45:59.367Z,5.10
2023-04-11T04:46:59.303Z,5.12
2023-04-11T04:47:59.384Z,5.11
2023-04-11T04:49:01.675Z,5.08
2023-04-11T04:49:59.252Z,4.97
2023-04-11T04:50:59.283Z,5.11
2023-04-11T04:51:59.284Z,5.60
2023-04-11T04:52:59.274Z,5.01
2023-04-11T04:53:59.301Z,5.85
2023-04-11T04:54:59.255Z,5.97
2023-04-11T04:55:59.256Z,5.54
2023-04-11T04:56:59.277Z,5.38
2023-04-11T04:57:59.255Z,6.14
2023-04-11T04:58:59.224Z,5.16
2023-04-11T04:59:59.262Z,5.70
2023-04-11T05:00:59.236Z,6.02
2023-04-11T05:01:59.304Z,5.50
2023-04-11T05:03:00.003Z,5.61
2023-04-11T05:04:00.017Z,5.67
2023-04-11T05:04:59.242Z,6.12
2023-04-11T05:05:59.190Z,5.94
2023-04-11T05:06:59.289Z,6.37
2023-04-11T05:07:59.257Z,5.56
2023-04-11T05:08:59.172Z,6.00
2023-04-11T05:09:59.774Z,5.76
2023-04-11T05:10:59.140Z,5.80
2023-04-11T05:11:59.133Z,6.17
2023-04-11T05:12:59.142Z,6.50
2023-04-11T05:13:59.570Z,6.12
2023-04-11T05:14:59.222Z,6.28
2023-04-11T05:15:59.114Z,6.01
2023-04-11T05:16:59.203Z,6.44
2023-04-11T05:17:59.172Z,6.14
2023-04-11T05:18:59.087Z,6.62
2023-04-11T05:19:59.087Z,11.24
2023-04-11T05:20:59.151Z,14.19
2023-04-11T05:21:59.107Z,15.12
2023-04-11T05:22:59.910Z,7.08
2023-04-11T05:23:59.064Z,7.61
2023-04-11T05:24:59.097Z,6.57
2023-04-11T05:25:59.089Z,6.63
2023-04-11T05:26:59.234Z,6.64
2023-04-11T05:27:59.520Z,6.75
2023-04-11T05:28:59.202Z,7.01
2023-04-11T05:29:58.995Z,6.35
2023-04-11T05:31:00.818Z,6.64
2023-04-11T05:31:59.026Z,6.65
2023-04-11T05:32:59.429Z,6.76
2023-04-11T05:33:59.145Z,6.87
2023-04-11T05:34:59.488Z,6.56
2023-04-11T05:35:59.094Z,7.54
2023-04-11T05:36:59.045Z,6.12
2023-04-11T05:37:59.309Z,6.30
2023-04-11T05:38:59.892Z,6.92
2023-04-11T05:39:59.081Z,7.08
2023-04-11T05:40:59.148Z,6.63
2023-04-11T05:41:59.026Z,6.60
2023-04-11T05:42:59.313Z,7.06
2023-04-11T05:43:59.051Z,8.03
2023-04-11T05:44:59.110Z,7.09
2023-04-11T05:47:19.666Z,6.03
2023-04-11T05:48:19.083Z,6.79
2023-04-11T05:49:18.899Z,7.13
2023-04-11T05:50:19.001Z,7.03
2023-04-11T05:51:18.898Z,9.54
2023-04-11T05:52:19.455Z,7.44
2023-04-11T05:53:19.173Z,7.07
2023-04-11T05:54:19.236Z,6.81
2023-04-11T05:55:19.407Z,6.57
2023-04-11T05:56:19.246Z,6.27
2023-04-11T05:57:19.215Z,5.78
2023-04-11T05:58:19.468Z,6.29
2023-04-11T05:59:24.709Z,5.86
2023-04-11T06:00:19.845Z,5.78
2023-04-11T06:01:20.080Z,6.10
2023-04-11T06:02:19.440Z,5.83
2023-04-11T06:03:20.513Z,5.86
2023-04-11T06:04:19.612Z,5.68
2023-04-11T06:05:19.354Z,5.65
2023-04-11T06:06:19.295Z,5.98
2023-04-11T06:07:20.321Z,6.10
2023-04-11T06:08:19.320Z,5.56
2023-04-11T06:09:19.346Z,6.01
2023-04-11T06:10:19.386Z,6.23
2023-04-11T06:11:19.817Z,5.64
2023-04-11T06:12:19.102Z,5.47
2023-04-11T06:13:19.265Z,6.31
2023-04-11T06:14:19.908Z,6.07
2023-04-11T06:15:19.488Z,5.90
2023-04-11T06:16:19.428Z,7.14
2023-04-11T06:17:19.450Z,6.56
2023-04-11T06:18:20.260Z,6.46
2023-04-11T06:19:19.338Z,6.81
2023-04-11T06:20:19.431Z,6.06
2023-04-11T06:21:19.240Z,6.21
2023-04-11T06:22:19.272Z,6.00
2023-04-11T06:23:19.288Z,6.55
2023-04-11T06:24:19.443Z,6.43
2023-04-11T06:25:19.354Z,7.06
2023-04-11T06:26:19.402Z,8.70
2023-04-11T06:27:19.256Z,6.60
2023-04-11T06:28:19.307Z,5.97
2023-04-11T06:29:19.377Z,6.44
2023-04-11T06:30:19.430Z,5.89
2023-04-11T06:31:19.467Z,6.24
2023-04-11T06:32:19.790Z,6.27
2023-04-11T06:33:19.416Z,6.17
2023-04-11T06:34:19.358Z,6.18
2023-04-11T06:35:19.374Z,6.84
2023-04-11T06:36:19.470Z,6.08
2023-04-11T06:37:19.378Z,6.75
2023-04-11T06:38:20.874Z,6.40
2023-04-11T06:39:19.274Z,6.93
2023-04-11T06:40:19.253Z,6.22
2023-04-11T06:42:39.169Z,6.75
2023-04-11T06:43:39.986Z,6.72
2023-04-11T06:44:40.064Z,7.20
2023-04-11T06:45:39.106Z,6.48
2023-04-11T06:46:39.146Z,7.60
2023-04-11T06:47:39.922Z,7.89
2023-04-11T06:48:39.253Z,7.01
2023-04-11T06:49:39.973Z,7.88
2023-04-11T06:50:39.206Z,6.76
2023-04-11T06:51:39.172Z,7.44
2023-04-11T06:52:39.089Z,6.83
2023-04-11T06:53:39.046Z,6.89
2023-04-11T06:54:39.183Z,7.47
2023-04-11T06:55:39.136Z,8.10
2023-04-11T06:56:39.226Z,8.26
2023-04-11T06:57:39.138Z,7.73
2023-04-11T06:58:39.705Z,6.93
2023-04-11T06:59:39.891Z,6.85
2023-04-11T07:00:39.063Z,7.26
2023-04-11T07:01:39.362Z,6.70
2023-04-11T07:02:39.401Z,7.45
2023-04-11T07:03:39.767Z,7.98
2023-04-11T07:04:39.175Z,6.23
2023-04-11T07:05:39.670Z,7.10
2023-04-11T07:06:39.094Z,6.95
2023-04-11T07:07:39.093Z,7.35
2023-04-11T07:08:39.145Z,8.02
2023-04-11T07:09:40.249Z,7.49
2023-04-11T07:10:39.226Z,7.81
2023-04-11T07:11:39.035Z,7.05
2023-04-11T07:12:39.209Z,6.65
2023-04-11T07:13:39.255Z,6.56
2023-04-11T07:14:39.237Z,7.09
2023-04-11T07:15:39.207Z,6.72
2023-04-11T07:16:39.287Z,6.06
2023-04-11T07:17:39.395Z,6.57
2023-04-11T07:18:39.238Z,6.38
2023-04-11T07:19:39.208Z,5.86
2023-04-11T07:20:39.283Z,5.67
2023-04-11T07:21:39.203Z,6.11
2023-04-11T07:22:39.269Z,6.12
2023-04-11T07:23:40.127Z,6.78
2023-04-11T07:24:39.136Z,6.29
2023-04-11T07:25:39.084Z,6.73
2023-04-11T07:26:39.118Z,6.35
2023-04-11T07:27:39.133Z,6.13
2023-04-11T07:28:39.075Z,6.66
2023-04-11T07:29:39.102Z,6.31
2023-04-11T07:30:39.052Z,6.58
2023-04-11T07:31:39.115Z,6.24
2023-04-11T07:32:39.185Z,6.44
2023-04-11T07:33:39.505Z,7.12
2023-04-11T07:34:39.184Z,6.19
2023-04-11T07:35:39.167Z,7.00
2023-04-11T07:36:39.163Z,6.62
2023-04-11T07:37:39.174Z,6.74
2023-04-11T07:38:39.486Z,6.43
2023-04-11T07:39:39.243Z,6.71
2023-04-11T07:40:39.255Z,7.17
2023-04-11T07:41:39.456Z,7.40
2023-04-11T07:42:39.335Z,7.61
2023-04-11T07:43:39.572Z,7.13
2023-04-11T07:44:39.462Z,7.47
2023-04-11T07:45:39.709Z,7.17
2023-04-11T07:46:39.541Z,6.90
2023-04-11T07:47:39.603Z,7.03
2023-04-11T07:48:40.070Z,6.85
2023-04-11T07:49:39.592Z,7.24
2023-04-11T07:50:39.712Z,6.96
2023-04-11T07:51:39.715Z,7.46
2023-04-11T07:52:39.618Z,8.00
2023-04-11T07:53:39.690Z,7.33
2023-04-11T07:54:39.634Z,7.34
2023-04-11T07:55:39.577Z,7.59
2023-04-11T07:56:39.616Z,7.61
2023-04-11T07:57:40.296Z,12.46
2023-04-11T07:58:39.652Z,9.28
2023-04-11T07:59:39.604Z,7.81
2023-04-11T08:00:42.203Z,7.82
2023-04-11T08:01:39.693Z,7.32
2023-04-11T08:02:39.725Z,7.42
2023-04-11T08:03:39.659Z,6.82
2023-04-11T08:04:39.821Z,7.37
2023-04-11T08:05:39.586Z,7.54
2023-04-11T08:06:39.464Z,7.90
2023-04-11T08:07:39.445Z,7.69
2023-04-11T08:08:40.549Z,7.15
2023-04-11T08:09:39.461Z,7.42
2023-04-11T08:10:39.525Z,6.82
2023-04-11T08:11:39.530Z,8.15
2023-04-11T08:12:39.517Z,8.60
2023-04-11T08:13:39.555Z,7.76
2023-04-11T08:14:39.502Z,7.42
2023-04-11T08:15:39.486Z,7.86
2023-04-11T08:16:39.540Z,6.92
2023-04-11T08:17:39.561Z,7.41
2023-04-11T08:18:39.450Z,7.26
2023-04-11T08:19:39.504Z,7.10
2023-04-11T08:20:39.568Z,6.83
2023-04-11T08:21:39.413Z,7.89
2023-04-11T08:22:39.456Z,6.83
2023-04-11T08:23:39.436Z,6.99
2023-04-11T08:24:39.514Z,8.48
2023-04-11T08:25:39.449Z,8.40
2023-04-11T08:26:39.541Z,8.01
2023-04-11T08:27:39.387Z,7.39
2023-04-11T08:28:41.114Z,7.27
2023-04-11T08:29:39.989Z,6.98
2023-04-11T08:30:40.528Z,7.44
2023-04-11T08:31:39.737Z,7.77
2023-04-11T08:32:40.624Z,7.72
2023-04-11T08:33:39.819Z,7.64
2023-04-11T08:34:39.712Z,7.21
2023-04-11T08:35:39.833Z,7.34
2023-04-11T08:36:39.718Z,6.85
2023-04-11T08:37:39.785Z,6.70
2023-04-11T08:38:39.698Z,7.00
2023-04-11T08:39:40.056Z,6.88
2023-04-11T08:40:39.884Z,6.28
2023-04-11T08:41:39.660Z,6.23
2023-04-11T08:42:39.680Z,6.27
2023-04-11T08:43:39.655Z,6.18
2023-04-11T08:44:39.633Z,5.98
2023-04-11T08:45:39.667Z,6.48
2023-04-11T08:46:39.764Z,6.70
2023-04-11T08:47:39.759Z,8.39
2023-04-11T08:48:39.810Z,7.68
2023-04-11T08:49:40.537Z,7.02
2023-04-11T08:50:40.599Z,6.57
2023-04-11T08:51:39.722Z,7.65
2023-04-11T08:52:39.803Z,7.67
2023-04-11T08:53:40.040Z,8.18
2023-04-11T08:54:39.986Z,7.60
2023-04-11T08:55:39.862Z,7.31
2023-04-11T08:56:39.749Z,7.71
2023-04-11T08:57:39.854Z,8.20
2023-04-11T08:58:41.359Z,8.87
2023-04-11T08:59:39.766Z,8.32
2023-04-11T09:00:39.712Z,7.59
2023-04-11T09:01:39.833Z,7.13
2023-04-11T09:02:39.921Z,8.03
2023-04-11T09:03:39.877Z,7.51
2023-04-11T09:04:39.905Z,7.50
2023-04-11T09:05:39.934Z,6.86
2023-04-11T09:06:39.938Z,6.90
2023-04-11T09:07:39.828Z,6.86
2023-04-11T09:08:39.899Z,6.88
2023-04-11T09:09:39.932Z,6.50
2023-04-11T09:10:39.932Z,7.85
2023-04-11T09:11:39.958Z,7.24
2023-04-11T09:12:40.036Z,7.05
2023-04-11T09:13:40.087Z,7.92
2023-04-11T09:14:40.206Z,7.47
2023-04-11T09:15:40.107Z,7.96
2023-04-11T09:16:40.100Z,7.23
2023-04-11T09:17:40.168Z,8.08
2023-04-11T09:18:40.174Z,7.57
2023-04-11T09:19:40.089Z,7.48
2023-04-11T09:20:40.117Z,7.17
2023-04-11T09:21:40.222Z,7.28
2023-04-11T09:22:42.612Z,7.26
2023-04-11T09:23:40.537Z,7.12
2023-04-11T09:24:40.262Z,6.61
2023-04-11T09:25:40.130Z,7.00
2023-04-11T09:26:40.142Z,7.76
2023-04-11T09:27:40.176Z,7.68
2023-04-11T09:28:40.565Z,8.17
2023-04-11T09:29:40.221Z,7.86
2023-04-11T09:30:40.212Z,7.65
2023-04-11T09:31:40.317Z,7.80
2023-04-11T09:32:40.201Z,8.47
2023-04-11T09:33:40.441Z,7.84
2023-04-11T09:34:42.400Z,7.39
2023-04-11T09:35:40.103Z,8.88
2023-04-11T09:36:41.107Z,7.95
2023-04-11T09:37:40.131Z,8.15
2023-04-11T09:38:40.053Z,8.79
2023-04-11T09:39:40.700Z,8.05
2023-04-11T09:40:40.255Z,8.84
2023-04-11T09:41:40.053Z,10.87
2023-04-11T09:42:40.062Z,8.84
2023-04-11T09:43:40.087Z,8.83
2023-04-11T09:44:40.619Z,7.81
2023-04-11T09:45:51.719Z,8.40
2023-04-11T09:46:41.043Z,7.79
2023-04-11T09:47:41.389Z,9.12
2023-04-11T09:48:46.383Z,8.03
2023-04-11T09:49:40.992Z,8.07
2023-04-11T09:50:40.024Z,8.61
2023-04-11T09:51:40.469Z,8.79
2023-04-11T09:52:40.017Z,8.30
2023-04-11T09:53:40.000Z,8.01
2023-04-11T09:54:40.150Z,8.25
2023-04-11T09:55:39.944Z,7.72
2023-04-11T09:56:39.961Z,8.22
2023-04-11T09:57:39.962Z,7.23
2023-04-11T09:58:39.964Z,7.78
2023-04-11T09:59:40.044Z,7.64
2023-04-11T10:00:39.967Z,7.25
2023-04-11T10:01:40.096Z,7.62
2023-04-11T10:02:40.341Z,8.19
2023-04-11T10:03:40.119Z,7.98
2023-04-11T10:04:40.136Z,6.90
2023-04-11T10:05:40.104Z,8.21
2023-04-11T10:06:40.256Z,6.42
2023-04-11T10:07:40.329Z,7.08
2023-04-11T10:08:40.270Z,7.93
2023-04-11T10:09:40.434Z,7.58
2023-04-11T10:10:40.386Z,7.69
2023-04-11T10:11:40.478Z,7.68
2023-04-11T10:12:40.447Z,7.52
2023-04-11T10:13:40.402Z,7.77
2023-04-11T10:14:40.452Z,7.55
2023-04-11T10:15:40.452Z,7.39
2023-04-11T10:16:40.431Z,6.82
2023-04-11T10:17:40.613Z,7.34
2023-04-11T10:18:40.550Z,7.49
2023-04-11T10:19:40.550Z,7.33
2023-04-11T10:20:40.443Z,8.19
2023-04-11T10:21:40.515Z,7.85
2023-04-11T10:22:41.361Z,7.44
2023-04-11T10:23:40.615Z,7.89
2023-04-11T10:24:40.576Z,8.48
2023-04-11T10:25:40.594Z,8.53
2023-04-11T10:26:40.554Z,8.50
2023-04-11T10:27:40.494Z,8.75
2023-04-11T10:28:40.505Z,8.58
2023-04-11T10:29:40.636Z,7.99
2023-04-11T10:30:40.508Z,8.27
2023-04-11T10:31:40.601Z,7.15
2023-04-11T10:32:40.550Z,8.06
2023-04-11T10:33:40.508Z,7.80
2023-04-11T10:34:41.027Z,7.66
2023-04-11T10:35:40.569Z,7.17
2023-04-11T10:36:40.560Z,7.36
2023-04-11T10:37:43.812Z,7.88
2023-04-11T10:38:41.922Z,6.96
2023-04-11T10:39:41.061Z,7.19
2023-04-11T10:40:40.680Z,7.39
2023-04-11T10:41:40.704Z,7.74
2023-04-11T10:42:40.749Z,7.08
2023-04-11T10:43:40.885Z,6.24
2023-04-11T10:44:40.855Z,6.05
2023-04-11T10:45:40.689Z,6.81
2023-04-11T10:46:42.768Z,5.95
2023-04-11T10:47:40.681Z,6.06
2023-04-11T10:48:40.656Z,5.86
2023-04-11T10:49:40.709Z,5.74
2023-04-11T10:50:40.724Z,5.37
2023-04-11T10:51:40.622Z,4.98
2023-04-11T10:52:40.637Z,4.91
2023-04-11T10:53:40.539Z,4.48
2023-04-11T10:54:40.681Z,4.71
2023-04-11T10:55:40.851Z,4.84
2023-04-11T10:56:40.501Z,4.44
2023-04-11T10:57:40.592Z,4.58
2023-04-11T10:58:40.673Z,3.63
2023-04-11T10:59:41.223Z,3.42
2023-04-11T11:00:40.806Z,3.23
2023-04-11T11:02:41.175Z,2.91
2023-04-11T11:03:40.848Z,3.29
2023-04-11T11:04:41.024Z,3.02
2023-04-11T11:05:40.637Z,3.29
2023-04-11T11:06:47.333Z,3.70
2023-04-11T11:07:42.514Z,3.29
2023-04-11T11:08:42.265Z,3.37
2023-04-11T11:09:42.311Z,3.75
2023-04-11T11:10:41.546Z,3.29
2023-04-11T11:11:40.592Z,3.34
2023-04-11T11:12:40.845Z,2.88
2023-04-11T11:13:42.744Z,2.81
2023-04-11T11:14:40.521Z,2.83
2023-04-11T11:15:40.749Z,2.48
2023-04-11T11:16:40.711Z,3.06
2023-04-11T11:17:40.614Z,2.54
2023-04-11T11:18:40.634Z,2.05
2023-04-11T11:19:40.616Z,1.95
2023-04-11T11:20:40.522Z,2.04
2023-04-11T11:21:40.556Z,2.09
2023-04-11T11:22:40.536Z,2.28
2023-04-11T11:23:40.627Z,2.35
2023-04-11T11:24:40.649Z,2.07
2023-04-11T11:25:41.110Z,2.02
2023-04-11T11:26:41.394Z,1.87
2023-04-11T11:27:41.492Z,1.59
2023-04-11T11:28:42.842Z,1.95
2023-04-11T11:29:41.187Z,2.60
2023-04-11T11:30:41.333Z,1.83
2023-04-11T11:31:41.329Z,1.33
2023-04-11T11:32:41.276Z,1.86
2023-04-11T11:33:41.115Z,1.84
2023-04-11T11:34:41.657Z,2.09
2023-04-11T11:35:41.138Z,1.95
2023-04-11T11:36:41.075Z,2.04
2023-04-11T11:37:41.181Z,2.01
2023-04-11T11:38:40.863Z,1.79
2023-04-11T11:39:41.064Z,2.05
2023-04-11T11:40:40.895Z,2.53
2023-04-11T11:41:41.678Z,1.99
2023-04-11T11:42:40.983Z,2.07
2023-04-11T11:43:40.971Z,2.05
2023-04-11T11:44:41.004Z,1.89
2023-04-11T11:45:40.990Z,2.08
2023-04-11T11:46:40.961Z,1.83
2023-04-11T11:47:42.329Z,1.96
2023-04-11T11:48:41.035Z,1.55
2023-04-11T11:49:41.059Z,1.61
2023-04-11T11:50:41.045Z,1.76
2023-04-11T11:51:40.962Z,1.73
2023-04-11T11:52:41.053Z,2.10
2023-04-11T11:53:41.083Z,2.24
2023-04-11T11:54:40.967Z,1.55
2023-04-11T11:55:41.111Z,2.63
2023-04-11T11:56:41.019Z,2.50
2023-04-11T11:57:41.222Z,2.17
2023-04-11T11:58:42.119Z,1.94
2023-04-11T11:59:41.131Z,2.22
2023-04-11T12:00:41.100Z,1.72
2023-04-11T12:01:41.040Z,1.65
2023-04-11T12:02:41.192Z,2.03
2023-04-11T12:03:41.182Z,1.95
2023-04-11T12:04:41.290Z,2.17
2023-04-11T12:05:41.026Z,1.68
2023-04-11T12:06:40.970Z,1.68
2023-04-11T12:07:41.057Z,1.92
2023-04-11T12:08:40.989Z,2.55
2023-04-11T12:09:40.968Z,1.55
2023-04-11T12:10:41.098Z,1.57
2023-04-11T12:11:41.089Z,1.31
2023-04-11T12:12:41.223Z,1.54
2023-04-11T12:13:41.036Z,1.61
2023-04-11T12:14:41.052Z,1.86
2023-04-11T12:15:41.287Z,2.08
2023-04-11T12:16:41.008Z,2.01
2023-04-11T12:17:41.246Z,1.80
2023-04-11T12:18:41.043Z,2.02
2023-04-11T12:19:41.042Z,1.79
2023-04-11T12:20:41.068Z,1.53
2023-04-11T12:21:40.971Z,1.42
2023-04-11T12:22:41.018Z,1.43
2023-04-11T12:23:40.976Z,1.54
2023-04-11T12:24:41.002Z,1.31
2023-04-11T12:25:40.990Z,1.30
2023-04-11T12:26:57.540Z,1.63
2023-04-11T12:27:40.987Z,1.31
2023-04-11T12:28:40.974Z,1.67
2023-04-11T12:29:40.929Z,1.06
2023-04-11T12:30:40.970Z,1.01
2023-04-11T12:31:41.610Z,1.01
2023-04-11T12:32:40.939Z,1.26
2023-04-11T12:33:41.021Z,0.73
2023-04-11T12:34:40.891Z,0.81
2023-04-11T12:35:40.963Z,0.72
2023-04-11T12:36:40.879Z,0.83
2023-04-11T12:37:40.971Z,0.70
2023-04-11T12:38:41.063Z,0.62
2023-04-11T12:39:40.894Z,1.12
2023-04-11T12:40:40.902Z,2.75
2023-04-11T12:41:40.900Z,2.65
2023-04-11T12:42:48.965Z,3.41
2023-04-11T12:43:41.878Z,3.21
2023-04-11T12:44:40.825Z,3.24
2023-04-11T12:45:40.935Z,3.20
2023-04-11T12:46:40.815Z,2.50
2023-04-11T12:47:40.903Z,2.51
2023-04-11T12:48:40.889Z,2.22
2023-04-11T12:49:40.845Z,2.68
2023-04-11T12:50:40.853Z,2.12
2023-04-11T12:51:40.825Z,2.12
2023-04-11T12:52:40.809Z,1.65
2023-04-11T12:53:40.878Z,1.62
2023-04-11T12:54:40.871Z,1.39
2023-04-11T12:55:40.847Z,1.34
2023-04-11T12:56:40.819Z,1.42
2023-04-11T12:57:40.915Z,1.74
2023-04-11T12:58:40.823Z,1.44
2023-04-11T12:59:40.825Z,1.55
2023-04-11T13:00:41.122Z,1.35
2023-04-11T13:01:40.914Z,1.43
2023-04-11T13:02:43.927Z,1.48
2023-04-11T13:03:40.811Z,1.36
2023-04-11T13:04:40.971Z,1.35
2023-04-11T13:05:40.775Z,1.39
2023-04-11T13:06:40.764Z,1.02
2023-04-11T13:07:40.808Z,0.96
2023-04-11T13:08:40.756Z,1.20
2023-04-11T13:09:40.686Z,1.20
2023-04-11T13:10:40.685Z,1.15
2023-04-11T13:11:40.801Z,1.27
2023-04-11T13:12:40.784Z,1.25
2023-04-11T13:13:41.386Z,1.43
2023-04-11T13:14:40.712Z,0.98
2023-04-11T13:15:40.732Z,0.90
2023-04-11T13:16:41.261Z,1.30
2023-04-11T13:17:40.801Z,1.38
2023-04-11T13:18:40.836Z,0.82
2023-04-11T13:19:40.688Z,0.92
2023-04-11T13:20:40.735Z,0.93
2023-04-11T13:21:41.101Z,0.80
2023-04-11T13:22:40.770Z,0.85